Huvudsida
METAR-TAF:

METAR-TAF

Flygplatser :

Japanese Ground Self Defense Force

Tokachi-Obihiro, Japan

latitud: 42-54N, longitud: 143-10E, höjd: 84 m

Aktuellt väderrapport

Denna rapport gjordes för 22 timmar och 15 minuter sedan, klockan 06:43 UTC
Vind 7 kt från väst/nordväst
Temperatur 33°C
Fuktighet 44%
Tryck 1003 hPa
Sikt 10 km eller mer
Få moln på en höjd av 4000 ft

METAR: RJCT 220643Z 30007KT 9999 FEW040 33/19 Q1003 RMK 2CU040 A2963

Tid: 13:58 (04:58 UTC)


TAF: saknas

Aktuella väderrapporter och prognoser från 4000 flygplatser (METAR- och TAF-rapporter).

De tillgängliga stationerna syns som gula och röda prickar på kartan.

För musen över prickarna för att se namnen på stationerna.

Klicka sedan för att få väderrapporter och prognoser.

För att ändra kartan: Klicka på de gröna knapparna med ett svart kors på för att zooma in; den gröna knappen med ett streck på för att zooma ut; eller på de gröna pilarna för angränsande kartor.


METAR-TAF: